createdAt,value
2023-05-03T00:01:37.315Z,4.90
2023-05-03T00:04:06.234Z,4.70
2023-05-03T00:06:34.544Z,4.70
2023-05-03T00:09:04.176Z,4.70
2023-05-03T00:11:32.303Z,4.60
2023-05-03T00:14:00.351Z,5.10
2023-05-03T00:16:28.439Z,5.90
2023-05-03T00:18:56.473Z,6.00
2023-05-03T00:21:24.547Z,6.20
2023-05-03T00:23:52.718Z,6.40
2023-05-03T00:26:22.591Z,6.10
2023-05-03T00:28:50.756Z,5.40
2023-05-03T00:31:19.641Z,4.70
2023-05-03T00:33:47.767Z,4.70
2023-05-03T00:36:16.616Z,4.50
2023-05-03T00:38:45.212Z,4.60
2023-05-03T00:41:13.898Z,4.80
2023-05-03T00:43:43.273Z,4.70
2023-05-03T00:46:17.296Z,4.40
2023-05-03T00:48:46.068Z,4.20
2023-05-03T00:51:15.529Z,4.20
2023-05-03T00:53:44.215Z,4.20
2023-05-03T00:56:12.408Z,4.40
2023-05-03T00:58:40.932Z,4.60
2023-05-03T01:01:10.552Z,4.60
2023-05-03T01:03:41.825Z,4.90
2023-05-03T01:06:14.943Z,4.90
2023-05-03T01:08:48.533Z,4.90
2023-05-03T01:11:24.341Z,5.10
2023-05-03T01:13:56.830Z,5.10
2023-05-03T01:16:32.963Z,5.10
2023-05-03T01:19:02.912Z,4.70
2023-05-03T01:21:33.997Z,4.30
2023-05-03T01:24:05.900Z,4.10
2023-05-03T01:26:35.320Z,4.10
2023-05-03T01:29:04.030Z,3.90
2023-05-03T01:31:37.015Z,3.90
2023-05-03T01:34:14.357Z,3.80
2023-05-03T01:36:44.932Z,4.00
2023-05-03T01:39:18.012Z,4.10
2023-05-03T01:41:48.311Z,4.50
2023-05-03T01:44:17.335Z,4.40
2023-05-03T01:46:45.619Z,4.30
2023-05-03T01:49:14.132Z,4.10
2023-05-03T01:51:42.319Z,3.80
2023-05-03T01:54:10.430Z,3.60
2023-05-03T01:56:39.093Z,3.50
2023-05-03T01:59:08.507Z,3.60
2023-05-03T02:01:36.640Z,3.60
2023-05-03T02:04:04.798Z,3.60
2023-05-03T02:06:32.888Z,3.70
2023-05-03T02:09:01.123Z,3.90
2023-05-03T02:11:29.112Z,4.30
2023-05-03T02:13:57.143Z,4.60
2023-05-03T02:16:27.736Z,4.70
2023-05-03T02:18:59.686Z,4.30
2023-05-03T02:21:27.964Z,3.80
2023-05-03T02:23:56.091Z,3.80
2023-05-03T02:26:24.213Z,3.50
2023-05-03T02:28:52.270Z,3.30
2023-05-03T02:31:20.397Z,3.20
2023-05-03T02:33:49.882Z,3.10
2023-05-03T02:36:17.945Z,3.10
2023-05-03T02:38:45.982Z,3.20
2023-05-03T02:41:14.334Z,3.60
2023-05-03T02:43:42.470Z,4.00
2023-05-03T02:46:10.515Z,4.00
2023-05-03T02:48:38.621Z,4.00
2023-05-03T02:51:08.578Z,4.10
2023-05-03T02:53:36.684Z,4.20
2023-05-03T02:56:04.847Z,3.70
2023-05-03T02:58:32.899Z,3.40
2023-05-03T03:01:01.218Z,3.30
2023-05-03T03:03:29.314Z,3.00
2023-05-03T03:05:57.465Z,3.00
2023-05-03T03:08:26.923Z,3.30
2023-05-03T03:10:55.026Z,3.40
2023-05-03T03:13:23.065Z,3.90
2023-05-03T03:15:51.114Z,3.90
2023-05-03T03:18:19.803Z,3.60
2023-05-03T03:20:48.049Z,3.40
2023-05-03T03:23:16.192Z,3.10
2023-05-03T03:25:45.658Z,2.80
2023-05-03T03:28:13.688Z,2.80
2023-05-03T03:30:41.740Z,2.90
2023-05-03T03:33:09.914Z,3.00
2023-05-03T03:35:38.414Z,3.40
2023-05-03T03:38:06.709Z,3.80
2023-05-03T03:40:34.769Z,3.50
2023-05-03T03:43:04.220Z,3.20
2023-05-03T03:45:32.235Z,3.00
2023-05-03T03:48:00.570Z,2.90
2023-05-03T03:50:28.685Z,2.90
2023-05-03T03:52:56.740Z,2.60
2023-05-03T03:55:24.798Z,2.60
2023-05-03T03:57:52.860Z,2.50
2023-05-03T04:00:22.439Z,2.50
2023-05-03T04:02:50.753Z,2.60
2023-05-03T04:05:19.842Z,2.60
2023-05-03T04:07:48.292Z,2.90
2023-05-03T04:10:17.189Z,3.00
2023-05-03T04:12:45.972Z,2.80
2023-05-03T04:15:15.481Z,2.80
2023-05-03T04:17:46.500Z,2.50
2023-05-03T04:20:15.474Z,2.80
2023-05-03T04:22:44.039Z,3.40
2023-05-03T04:25:14.486Z,3.70
2023-05-03T04:27:43.031Z,3.70
2023-05-03T04:30:15.388Z,3.70
2023-05-03T04:32:47.632Z,3.30
2023-05-03T04:35:16.292Z,2.80
2023-05-03T04:37:44.648Z,2.60
2023-05-03T04:40:13.492Z,2.50
2023-05-03T04:42:42.486Z,2.40
2023-05-03T04:45:12.110Z,2.30
2023-05-03T04:47:40.867Z,2.50
2023-05-03T04:50:12.468Z,2.50
2023-05-03T04:52:41.189Z,2.70
2023-05-03T04:55:10.487Z,2.50
2023-05-03T04:57:39.022Z,2.80
2023-05-03T05:00:11.409Z,3.40
2023-05-03T05:02:39.905Z,3.70
2023-05-03T05:05:11.369Z,4.10
2023-05-03T05:07:40.137Z,4.40
2023-05-03T05:10:10.303Z,4.50
2023-05-03T05:12:39.206Z,4.50
2023-05-03T05:15:09.498Z,4.40
2023-05-03T05:17:38.127Z,4.40
2023-05-03T05:20:12.474Z,4.40
2023-05-03T05:22:42.921Z,4.50
2023-05-03T05:25:11.826Z,4.80
2023-05-03T05:27:40.584Z,4.80
2023-05-03T05:30:10.187Z,4.70
2023-05-03T05:32:38.751Z,4.60
2023-05-03T05:35:07.766Z,4.20
2023-05-03T05:37:36.328Z,3.90
2023-05-03T05:40:08.780Z,3.80
2023-05-03T05:42:37.793Z,3.60
2023-05-03T05:45:08.075Z,3.60
2023-05-03T05:47:36.600Z,3.50
2023-05-03T05:50:14.921Z,3.50
2023-05-03T05:52:46.158Z,3.80
2023-05-03T05:55:16.005Z,4.10
2023-05-03T05:57:44.271Z,4.00
2023-05-03T06:00:15.787Z,3.90
2023-05-03T06:02:44.525Z,4.10
2023-05-03T06:05:13.156Z,4.10
2023-05-03T06:07:41.464Z,4.10
2023-05-03T06:10:11.002Z,4.10
2023-05-03T06:12:40.985Z,4.20
2023-05-03T06:15:09.966Z,4.30
2023-05-03T06:17:38.953Z,4.40
2023-05-03T06:20:12.153Z,4.70
2023-05-03T06:22:40.767Z,4.80
2023-05-03T06:25:10.050Z,4.70
2023-05-03T06:27:39.024Z,4.70
2023-05-03T06:30:13.079Z,4.90
2023-05-03T06:32:42.559Z,5.00
2023-05-03T06:35:12.715Z,5.10
2023-05-03T06:37:41.058Z,5.20
2023-05-03T06:40:11.478Z,5.20
2023-05-03T06:42:40.366Z,5.20
2023-05-03T06:45:11.469Z,5.40
2023-05-03T06:47:42.801Z,5.50
2023-05-03T06:50:12.227Z,5.70
2023-05-03T06:52:41.398Z,5.70
2023-05-03T06:55:12.175Z,5.90
2023-05-03T06:57:42.567Z,5.90
2023-05-03T07:00:14.200Z,6.10
2023-05-03T07:02:42.440Z,6.20
2023-05-03T07:05:13.182Z,6.30
2023-05-03T07:07:41.923Z,6.30
2023-05-03T07:10:10.901Z,6.30
2023-05-03T07:12:39.235Z,6.50
2023-05-03T07:15:08.570Z,6.60
2023-05-03T07:17:38.366Z,6.70
2023-05-03T07:20:09.192Z,6.80
2023-05-03T07:22:37.711Z,6.80
2023-05-03T07:25:08.272Z,6.90
2023-05-03T07:27:37.061Z,7.00
2023-05-03T07:30:06.784Z,7.20
2023-05-03T07:32:35.399Z,7.30
2023-05-03T07:35:08.028Z,7.40
2023-05-03T07:37:38.956Z,7.40
2023-05-03T07:40:08.488Z,7.50
2023-05-03T07:42:37.538Z,7.50
2023-05-03T07:45:06.872Z,7.70
2023-05-03T07:47:38.236Z,7.90
2023-05-03T07:50:09.871Z,8.00
2023-05-03T07:52:38.390Z,7.90
2023-05-03T07:55:09.018Z,8.00
2023-05-03T07:57:37.564Z,8.30
2023-05-03T08:00:08.439Z,8.40
2023-05-03T08:02:36.973Z,8.60
2023-05-03T08:05:08.329Z,8.60
2023-05-03T08:07:37.327Z,8.80
2023-05-03T08:10:06.738Z,8.90
2023-05-03T08:12:35.233Z,8.90
2023-05-03T08:15:07.261Z,9.00
2023-05-03T08:17:41.930Z,9.20
2023-05-03T08:20:13.942Z,9.40
2023-05-03T08:22:42.916Z,9.70
2023-05-03T08:25:12.506Z,9.70
2023-05-03T08:27:40.748Z,9.80
2023-05-03T08:30:11.077Z,9.80
2023-05-03T08:32:39.505Z,10.00
2023-05-03T08:35:09.030Z,10.10
2023-05-03T08:37:43.431Z,10.10
2023-05-03T08:40:14.375Z,10.10
2023-05-03T08:42:44.101Z,10.20
2023-05-03T08:45:14.927Z,10.80
2023-05-03T08:47:45.078Z,10.80
2023-05-03T08:50:14.905Z,10.60
2023-05-03T08:52:45.919Z,10.40
2023-05-03T08:55:14.497Z,10.40
2023-05-03T08:57:42.884Z,10.70
2023-05-03T09:00:15.764Z,10.80
2023-05-03T09:02:44.392Z,11.30
2023-05-03T09:05:35.206Z,11.00
2023-05-03T09:08:06.818Z,10.70
2023-05-03T09:10:37.110Z,10.90
2023-05-03T09:13:06.628Z,11.10
2023-05-03T09:15:35.564Z,11.00
2023-05-03T09:18:11.786Z,11.20
2023-05-03T09:20:41.963Z,11.30
2023-05-03T09:23:12.350Z,11.40
2023-05-03T09:25:46.208Z,12.00
2023-05-03T09:28:17.452Z,12.30
2023-05-03T09:30:46.661Z,11.90
2023-05-03T09:33:20.524Z,12.70
2023-05-03T09:35:58.848Z,12.10
2023-05-03T09:38:41.219Z,12.80
2023-05-03T09:41:10.218Z,13.60
2023-05-03T09:43:50.068Z,13.00
2023-05-03T09:46:18.574Z,12.90
2023-05-03T09:48:47.035Z,12.60
2023-05-03T09:51:16.145Z,12.40
2023-05-03T09:53:46.240Z,12.70
2023-05-03T09:56:15.058Z,12.80
2023-05-03T09:58:44.457Z,13.20
2023-05-03T10:01:13.615Z,13.50
2023-05-03T10:03:44.226Z,13.70
2023-05-03T10:06:27.123Z,13.50
2023-05-03T10:09:02.200Z,13.70
2023-05-03T10:11:30.956Z,13.50
2023-05-03T10:13:59.771Z,14.30
2023-05-03T10:16:32.500Z,13.70
2023-05-03T10:19:08.247Z,13.40
2023-05-03T10:21:50.191Z,13.40
2023-05-03T10:24:20.732Z,13.40
2023-05-03T10:26:52.825Z,13.70
2023-05-03T10:29:49.229Z,14.30
2023-05-03T10:32:34.518Z,13.70
2023-05-03T10:35:06.276Z,13.40
2023-05-03T10:37:38.231Z,13.50
2023-05-03T10:40:14.110Z,14.50
2023-05-03T10:42:45.782Z,14.10
2023-05-03T10:45:28.619Z,13.90
2023-05-03T10:48:16.688Z,13.90
2023-05-03T10:50:45.611Z,13.80
2023-05-03T10:53:37.470Z,13.70
2023-05-03T10:56:09.611Z,14.70
2023-05-03T10:58:39.487Z,15.00
2023-05-03T11:01:09.854Z,14.80
2023-05-03T11:03:56.383Z,14.50
2023-05-03T11:06:32.862Z,14.20
2023-05-03T11:09:01.898Z,14.70
2023-05-03T11:11:32.310Z,14.40
2023-05-03T11:14:03.341Z,14.50
2023-05-03T11:16:32.117Z,14.60
2023-05-03T11:19:03.950Z,14.50
2023-05-03T11:21:33.790Z,14.30
2023-05-03T11:24:03.335Z,14.80
2023-05-03T11:26:38.711Z,14.70
2023-05-03T11:29:07.245Z,14.60
2023-05-03T11:31:36.010Z,15.00
2023-05-03T11:34:04.738Z,14.60
2023-05-03T11:36:33.060Z,14.60
2023-05-03T11:39:02.060Z,15.00
2023-05-03T11:41:30.559Z,15.40
2023-05-03T11:44:12.089Z,15.00
2023-05-03T11:46:44.430Z,14.90
2023-05-03T11:49:19.644Z,15.30
2023-05-03T11:51:51.714Z,15.50
2023-05-03T11:54:27.468Z,15.60
2023-05-03T11:56:59.436Z,16.40
2023-05-03T11:59:40.874Z,15.70
2023-05-03T12:02:13.743Z,15.80
2023-05-03T12:04:46.640Z,15.30
2023-05-03T12:07:18.866Z,15.70
2023-05-03T12:10:03.415Z,15.70
2023-05-03T12:12:41.508Z,15.70
2023-05-03T12:15:16.366Z,15.50
2023-05-03T12:17:48.787Z,15.40
2023-05-03T12:22:57.827Z,15.40
2023-05-03T12:25:30.921Z,15.80
2023-05-03T12:28:18.653Z,15.60
2023-05-03T12:30:52.695Z,15.50
2023-05-03T12:33:22.967Z,15.60
2023-05-03T12:35:54.237Z,15.50
2023-05-03T12:38:25.061Z,15.70
2023-05-03T12:40:56.186Z,15.80
2023-05-03T12:43:25.081Z,16.10
2023-05-03T12:46:23.865Z,15.70
2023-05-03T12:48:46.407Z,15.80
2023-05-03T12:53:47.878Z,16.10
2023-05-03T12:56:17.373Z,16.00
2023-05-03T13:02:17.303Z,16.00
2023-05-03T13:06:45.209Z,16.50
2023-05-03T13:09:20.781Z,16.90
2023-05-03T13:11:51.247Z,16.80
2023-05-03T13:14:22.131Z,16.50
2023-05-03T13:16:52.159Z,16.60
2023-05-03T13:19:20.913Z,16.60
2023-05-03T13:21:49.928Z,16.70
2023-05-03T13:24:18.401Z,17.40
2023-05-03T13:26:47.132Z,17.60
2023-05-03T13:29:15.251Z,18.00
2023-05-03T13:31:43.444Z,17.40
2023-05-03T13:34:12.985Z,16.90
2023-05-03T13:36:42.128Z,16.80
2023-05-03T13:39:10.880Z,16.80
2023-05-03T13:41:41.119Z,17.00
2023-05-03T13:44:10.103Z,17.20
2023-05-03T13:46:38.769Z,18.00
2023-05-03T13:49:07.548Z,17.40
2023-05-03T13:51:38.725Z,17.30
2023-05-03T13:54:08.559Z,17.00
2023-05-03T13:56:37.593Z,17.00
2023-05-03T13:59:08.840Z,17.00
2023-05-03T14:01:38.243Z,16.60
2023-05-03T14:04:07.119Z,17.30
2023-05-03T14:06:40.300Z,17.00
2023-05-03T14:09:09.657Z,17.70
2023-05-03T14:11:39.252Z,17.90
2023-05-03T14:14:07.734Z,17.50
2023-05-03T14:16:41.275Z,17.60
2023-05-03T14:19:12.110Z,17.60
2023-05-03T14:21:43.298Z,17.60
2023-05-03T14:24:11.830Z,17.40
2023-05-03T14:26:40.108Z,17.30
2023-05-03T14:29:08.963Z,17.50
2023-05-03T14:31:37.721Z,17.20
2023-05-03T14:34:08.088Z,17.40
2023-05-03T14:36:39.035Z,17.50
2023-05-03T14:39:09.314Z,17.50
2023-05-03T14:41:37.871Z,17.40
2023-05-03T14:44:06.929Z,17.20
2023-05-03T14:46:35.212Z,17.00
2023-05-03T14:49:03.516Z,17.40
2023-05-03T14:51:32.528Z,17.50
2023-05-03T14:54:01.209Z,17.30
2023-05-03T14:56:33.380Z,17.10
2023-05-03T14:59:02.737Z,17.20
2023-05-03T15:01:31.019Z,17.40
2023-05-03T15:03:59.543Z,17.80
2023-05-03T15:06:30.882Z,17.70
2023-05-03T15:09:00.252Z,17.50
2023-05-03T15:11:28.961Z,17.30
2023-05-03T15:13:59.065Z,17.90
2023-05-03T15:16:27.998Z,18.00
2023-05-03T15:18:56.366Z,17.80
2023-05-03T15:21:25.180Z,18.00
2023-05-03T15:23:54.294Z,17.80
2023-05-03T15:26:24.499Z,17.90
2023-05-03T15:28:53.407Z,17.70
2023-05-03T15:31:22.957Z,17.80
2023-05-03T15:33:51.586Z,18.00
2023-05-03T15:36:20.689Z,17.80
2023-05-03T15:38:50.246Z,17.60
2023-05-03T15:41:18.943Z,17.70
2023-05-03T15:43:47.803Z,17.90
2023-05-03T15:46:16.399Z,18.00
2023-05-03T15:48:46.769Z,18.00
2023-05-03T15:51:15.299Z,18.30
2023-05-03T15:53:43.850Z,18.30
2023-05-03T15:56:12.301Z,18.20
2023-05-03T15:58:40.794Z,18.10
2023-05-03T16:01:09.312Z,18.10
2023-05-03T16:03:37.836Z,18.00
2023-05-03T16:06:11.199Z,18.20
2023-05-03T16:08:40.514Z,17.90
2023-05-03T16:11:09.978Z,18.00
2023-05-03T16:13:38.579Z,18.10
2023-05-03T16:16:07.442Z,18.10
2023-05-03T16:18:36.588Z,17.90
2023-05-03T16:21:05.665Z,18.00
2023-05-03T16:23:35.852Z,17.80
2023-05-03T16:26:13.320Z,18.00
2023-05-03T16:28:42.913Z,18.10
2023-05-03T16:31:11.513Z,18.10
2023-05-03T16:33:40.117Z,18.00
2023-05-03T16:36:08.731Z,18.20
2023-05-03T16:38:38.793Z,18.00
2023-05-03T16:41:07.728Z,18.10
2023-05-03T16:43:36.217Z,18.70
2023-05-03T16:46:05.299Z,18.70
2023-05-03T16:48:35.038Z,18.00
2023-05-03T16:51:04.019Z,17.90
2023-05-03T16:53:32.662Z,17.70
2023-05-03T16:56:02.874Z,17.80
2023-05-03T16:58:31.212Z,17.70
2023-05-03T17:00:59.443Z,17.80
2023-05-03T17:03:28.112Z,17.90
2023-05-03T17:05:56.801Z,17.70
2023-05-03T17:08:25.326Z,17.60
2023-05-03T17:10:54.511Z,17.40
2023-05-03T17:13:24.278Z,17.50
2023-05-03T17:15:53.190Z,17.40
2023-05-03T17:18:21.683Z,17.30
2023-05-03T17:24:38.373Z,16.80
2023-05-03T17:27:09.863Z,16.90
2023-05-03T17:29:41.413Z,16.70
2023-05-03T17:32:10.415Z,16.80
2023-05-03T17:34:38.837Z,16.60
2023-05-03T17:37:07.405Z,16.40
2023-05-03T17:39:36.432Z,16.30
2023-05-03T17:42:05.117Z,16.20
2023-05-03T17:44:33.729Z,16.20
2023-05-03T17:47:03.816Z,16.00
2023-05-03T17:49:34.524Z,16.10
2023-05-03T17:52:04.223Z,16.00
2023-05-03T17:57:12.853Z,15.80
2023-05-03T17:59:41.513Z,15.60
2023-05-03T18:02:14.125Z,15.60
2023-05-03T18:04:42.969Z,15.60
2023-05-03T18:07:12.156Z,15.60
2023-05-03T18:09:40.868Z,15.40
2023-05-03T18:12:09.280Z,15.30
2023-05-03T18:14:38.481Z,15.30
2023-05-03T18:17:07.501Z,15.40
2023-05-03T18:19:37.273Z,15.30
2023-05-03T18:22:08.565Z,15.10
2023-05-03T18:24:37.330Z,15.10
2023-05-03T18:27:06.182Z,15.00
2023-05-03T18:29:37.407Z,14.90
2023-05-03T18:32:06.084Z,14.80
2023-05-03T18:34:37.523Z,14.70
2023-05-03T18:37:07.169Z,14.70
2023-05-03T18:39:36.188Z,14.60
2023-05-03T18:42:04.452Z,14.50
2023-05-03T18:44:32.998Z,14.50
2023-05-03T18:47:01.711Z,14.40
2023-05-03T18:49:30.273Z,14.30
2023-05-03T18:51:58.745Z,14.20
2023-05-03T18:54:28.668Z,14.20
2023-05-03T18:56:57.109Z,14.10
2023-05-03T18:59:25.400Z,14.00
2023-05-03T19:01:53.726Z,14.00
2023-05-03T19:04:22.048Z,13.90
2023-05-03T19:06:50.361Z,13.80
2023-05-03T19:09:18.861Z,13.70
2023-05-03T19:11:49.292Z,13.70
2023-05-03T19:14:18.060Z,13.70
2023-05-03T19:16:46.718Z,13.70
2023-05-03T19:19:15.669Z,13.60
2023-05-03T19:21:44.777Z,13.50
2023-05-03T19:24:16.900Z,13.50
2023-05-03T19:26:45.430Z,13.20
2023-05-03T19:29:15.989Z,13.30
2023-05-03T19:31:44.717Z,13.10
2023-05-03T19:34:13.282Z,13.00
2023-05-03T19:36:42.480Z,12.90
2023-05-03T19:39:13.319Z,12.90
2023-05-03T19:41:41.942Z,12.80
2023-05-03T19:44:10.326Z,12.80
2023-05-03T19:46:40.351Z,12.60
2023-05-03T19:49:08.690Z,12.60
2023-05-03T19:51:37.186Z,12.50
2023-05-03T19:54:05.729Z,12.40
2023-05-03T19:56:34.290Z,12.40
2023-05-03T19:59:02.395Z,12.30
2023-05-03T20:01:30.460Z,12.30
2023-05-03T20:04:00.880Z,12.20
2023-05-03T20:06:29.465Z,12.10
2023-05-03T20:08:58.204Z,12.00
2023-05-03T20:11:26.689Z,11.90
2023-05-03T20:13:56.006Z,11.80
2023-05-03T20:16:27.174Z,11.80
2023-05-03T20:18:55.517Z,11.60
2023-05-03T20:21:25.196Z,11.60
2023-05-03T20:23:53.587Z,11.40
2023-05-03T20:26:22.181Z,11.30
2023-05-03T20:28:53.150Z,11.30
2023-05-03T20:31:21.660Z,11.10
2023-05-03T20:33:50.129Z,11.20
2023-05-03T20:36:18.550Z,11.10
2023-05-03T20:38:48.483Z,11.00
2023-05-03T20:41:18.832Z,11.00
2023-05-03T20:43:47.440Z,11.00
2023-05-03T20:46:15.863Z,10.90
2023-05-03T20:48:44.268Z,10.90
2023-05-03T20:51:12.955Z,10.90
2023-05-03T20:53:41.144Z,10.80
2023-05-03T20:56:11.696Z,10.80
2023-05-03T20:58:40.058Z,10.90
2023-05-03T21:01:08.797Z,10.90
2023-05-03T21:03:37.517Z,10.70
2023-05-03T21:06:06.817Z,10.50
2023-05-03T21:08:36.283Z,10.30
2023-05-03T21:11:04.862Z,10.20
2023-05-03T21:13:36.113Z,10.10
2023-05-03T21:16:04.886Z,10.10
2023-05-03T21:18:33.050Z,10.10
2023-05-03T21:21:01.350Z,10.20
2023-05-03T21:23:29.906Z,10.00
2023-05-03T21:25:58.391Z,10.10
2023-05-03T21:28:26.527Z,10.10
2023-05-03T21:30:57.305Z,10.10
2023-05-03T21:33:25.509Z,10.00
2023-05-03T21:35:53.777Z,9.90
2023-05-03T21:38:22.477Z,9.80
2023-05-03T21:40:50.727Z,9.70
2023-05-03T21:43:20.146Z,9.50
2023-05-03T21:45:49.286Z,9.50
2023-05-03T21:48:19.286Z,9.40
2023-05-03T21:50:47.293Z,9.40
2023-05-03T21:53:15.449Z,9.50
2023-05-03T21:55:43.383Z,9.40
2023-05-03T21:58:11.406Z,9.40
2023-05-03T22:00:40.481Z,9.40
2023-05-03T22:03:08.904Z,9.30
2023-05-03T22:05:40.769Z,9.40
2023-05-03T22:08:09.836Z,9.30
2023-05-03T22:10:38.412Z,9.20
2023-05-03T22:13:06.637Z,9.20
2023-05-03T22:15:34.775Z,9.10
2023-05-03T22:18:02.845Z,9.10
2023-05-03T22:20:30.939Z,9.10
2023-05-03T22:23:00.338Z,9.20
2023-05-03T22:25:32.065Z,9.10
2023-05-03T22:28:00.776Z,9.20
2023-05-03T22:30:29.045Z,9.30
2023-05-03T22:32:57.086Z,9.30
2023-05-03T22:35:25.352Z,9.20
2023-05-03T22:37:53.393Z,9.40
2023-05-03T22:40:22.838Z,9.30
2023-05-03T22:42:50.907Z,9.20
2023-05-03T22:45:19.097Z,9.20
2023-05-03T22:47:47.156Z,9.20
2023-05-03T22:50:16.486Z,9.30
2023-05-03T22:52:45.187Z,9.30
2023-05-03T22:55:13.352Z,9.30
2023-05-03T22:57:42.963Z,9.10
2023-05-03T23:00:12.370Z,9.10
2023-05-03T23:02:40.660Z,8.90
2023-05-03T23:05:09.573Z,8.70
2023-05-03T23:07:37.721Z,8.60
2023-05-03T23:10:07.492Z,8.60
2023-05-03T23:12:35.969Z,8.70
2023-05-03T23:15:06.272Z,8.50
2023-05-03T23:17:34.987Z,8.50
2023-05-03T23:20:05.456Z,8.50
2023-05-03T23:22:33.915Z,8.60
2023-05-03T23:25:02.094Z,8.50
2023-05-03T23:27:30.252Z,8.30
2023-05-03T23:29:58.954Z,8.40
2023-05-03T23:32:28.941Z,8.30
2023-05-03T23:34:57.951Z,8.40
2023-05-03T23:37:25.945Z,8.30
2023-05-03T23:39:53.948Z,8.40
2023-05-03T23:42:22.317Z,8.30
2023-05-03T23:44:55.161Z,8.10
2023-05-03T23:47:24.240Z,8.10
2023-05-03T23:49:53.689Z,8.10
2023-05-03T23:52:21.713Z,8.10
2023-05-03T23:54:49.785Z,8.10
2023-05-03T23:57:17.953Z,8.00
2023-05-03T23:59:46.166Z,7.90
